createdAt,value
2018-11-25T00:01:09.778Z,94723.09
2018-11-25T00:03:45.345Z,94722.10
2018-11-25T00:06:20.826Z,94712.41
2018-11-25T00:08:56.206Z,94704.52
2018-11-25T00:11:31.710Z,94703.98
2018-11-25T00:14:08.054Z,94700.21
2018-11-25T00:16:43.485Z,94703.85
2018-11-25T00:19:18.927Z,94709.86
2018-11-25T00:21:54.345Z,94708.70
2018-11-25T00:24:29.843Z,94705.41
2018-11-25T00:27:05.664Z,94703.14
2018-11-25T00:29:41.046Z,94698.84
2018-11-25T00:32:17.357Z,94697.48
2018-11-25T00:34:52.836Z,94691.83
2018-11-25T00:37:28.765Z,94686.59
2018-11-25T00:40:04.627Z,94684.91
2018-11-25T00:42:40.150Z,94694.14
2018-11-25T00:45:20.350Z,94682.34
2018-11-25T00:47:55.787Z,94677.17
2018-11-25T00:50:31.337Z,94681.30
2018-11-25T00:53:07.455Z,94675.20
2018-11-25T00:55:42.921Z,94683.00
2018-11-25T00:58:18.482Z,94680.09
2018-11-25T01:00:54.046Z,94682.72
2018-11-25T01:03:29.836Z,94682.45
2018-11-25T01:06:05.572Z,94680.03
2018-11-25T01:08:41.279Z,94677.84
2018-11-25T01:11:16.795Z,94683.85
2018-11-25T01:13:52.280Z,94678.29
2018-11-25T01:16:27.801Z,94675.50
2018-11-25T01:19:03.297Z,94675.81
2018-11-25T01:21:38.691Z,94670.39
2018-11-25T01:24:14.227Z,94671.34
2018-11-25T01:26:49.838Z,94675.65
2018-11-25T01:29:25.243Z,94675.65
2018-11-25T01:32:01.203Z,94667.94
2018-11-25T01:34:36.745Z,94677.86
2018-11-25T01:37:12.575Z,94668.66
2018-11-25T01:39:48.063Z,94664.97
2018-11-25T01:42:23.488Z,94673.17
2018-11-25T01:44:59.031Z,94666.75
2018-11-25T01:47:34.659Z,94651.92
2018-11-25T01:50:14.935Z,94649.75
2018-11-25T01:52:50.511Z,94644.02
2018-11-25T01:55:25.965Z,94640.74
2018-11-25T01:58:01.347Z,94632.75
2018-11-25T02:00:36.963Z,94624.45
2018-11-25T02:03:12.754Z,94620.70
2018-11-25T02:05:48.236Z,94609.66
2018-11-25T02:08:23.735Z,94600.03
2018-11-25T02:10:59.248Z,94590.29
2018-11-25T02:13:34.986Z,94591.73
2018-11-25T02:16:10.546Z,94587.45
2018-11-25T02:18:46.054Z,94584.06
2018-11-25T02:21:21.550Z,94572.80
2018-11-25T02:23:57.075Z,94560.64
2018-11-25T02:26:32.668Z,94568.48
2018-11-25T02:29:08.344Z,94564.70
2018-11-25T02:31:44.161Z,94556.52
2018-11-25T02:34:19.679Z,94551.63
2018-11-25T02:36:55.077Z,94552.62
2018-11-25T02:39:30.539Z,94550.44
2018-11-25T02:42:06.094Z,94541.25
2018-11-25T02:44:41.505Z,94549.89
2018-11-25T02:47:16.943Z,94553.58
2018-11-25T02:49:52.469Z,94553.31
2018-11-25T02:52:27.971Z,94550.20
2018-11-25T02:55:03.870Z,94553.23
2018-11-25T02:57:39.434Z,94555.03
2018-11-25T03:00:14.911Z,94553.52
2018-11-25T03:02:51.490Z,94549.47
2018-11-25T03:05:27.077Z,94554.55
2018-11-25T03:08:02.682Z,94551.84
2018-11-25T03:10:39.643Z,94551.41
2018-11-25T03:13:15.095Z,94552.39
2018-11-25T03:15:50.641Z,94546.79
2018-11-25T03:18:26.177Z,94548.74
2018-11-25T03:21:01.655Z,94551.16
2018-11-25T03:23:37.234Z,94539.95
2018-11-25T03:26:12.853Z,94540.64
2018-11-25T03:28:48.556Z,94543.03
2018-11-25T03:31:24.641Z,94544.31
2018-11-25T03:34:00.252Z,94538.63
2018-11-25T03:36:35.782Z,94530.22
2018-11-25T03:39:11.189Z,94527.13
2018-11-25T03:41:46.692Z,94521.03
2018-11-25T03:44:22.077Z,94520.68
2018-11-25T03:46:57.457Z,94524.41
2018-11-25T03:49:32.819Z,94520.80
2018-11-25T03:52:08.250Z,94514.16
2018-11-25T03:54:43.634Z,94511.78
2018-11-25T03:57:19.195Z,94499.64
2018-11-25T03:59:55.214Z,94498.78
2018-11-25T04:02:30.696Z,94493.42
2018-11-25T04:05:08.352Z,94500.58
2018-11-25T04:07:43.887Z,94506.28
2018-11-25T04:10:19.980Z,94508.55
2018-11-25T04:12:55.483Z,94506.88
2018-11-25T04:15:30.916Z,94498.00
2018-11-25T04:18:06.568Z,94498.97
2018-11-25T04:20:42.149Z,94501.06
2018-11-25T04:23:17.699Z,94495.53
2018-11-25T04:25:53.543Z,94493.62
2018-11-25T04:28:29.111Z,94487.88
2018-11-25T04:31:04.900Z,94489.16
2018-11-25T04:33:40.524Z,94485.78
2018-11-25T04:36:16.252Z,94485.50
2018-11-25T04:38:52.027Z,94482.02
2018-11-25T04:41:27.547Z,94478.00
2018-11-25T04:44:03.243Z,94467.09
2018-11-25T04:46:38.855Z,94461.16
2018-11-25T04:49:14.270Z,94453.63
2018-11-25T04:51:49.819Z,94443.81
2018-11-25T04:54:25.393Z,94451.20
2018-11-25T04:57:00.963Z,94445.42
2018-11-25T04:59:36.533Z,94445.57
2018-11-25T05:02:11.970Z,94442.34
2018-11-25T05:04:47.549Z,94438.38
2018-11-25T05:07:22.983Z,94432.70
2018-11-25T05:09:58.447Z,94435.26
2018-11-25T05:12:33.916Z,94420.30
2018-11-25T05:15:18.501Z,94417.53
2018-11-25T05:17:54.056Z,94417.37
2018-11-25T05:20:29.955Z,94409.89
2018-11-25T05:23:06.131Z,94420.14
2018-11-25T05:25:41.572Z,94408.70
2018-11-25T05:28:16.955Z,94406.38
2018-11-25T05:30:52.328Z,94401.03
2018-11-25T05:33:27.893Z,94399.47
2018-11-25T05:36:03.462Z,94394.13
2018-11-25T05:38:38.921Z,94393.47
2018-11-25T05:41:14.429Z,94393.77
2018-11-25T05:43:49.822Z,94388.43
2018-11-25T05:46:25.329Z,94396.19
2018-11-25T05:49:00.692Z,94398.05
2018-11-25T05:51:36.094Z,94398.00
2018-11-25T05:54:11.526Z,94404.98
2018-11-25T05:56:46.967Z,94409.20
2018-11-25T05:59:22.406Z,94400.02
2018-11-25T06:01:57.990Z,94406.45
2018-11-25T06:04:33.572Z,94409.27
2018-11-25T06:07:09.042Z,94410.84
2018-11-25T06:09:45.114Z,94399.91
2018-11-25T06:12:20.569Z,94401.80
2018-11-25T06:14:56.611Z,94406.77
2018-11-25T06:17:32.080Z,94410.62
2018-11-25T06:20:12.145Z,94418.06
2018-11-25T06:22:47.990Z,94413.08
2018-11-25T06:25:23.595Z,94401.22
2018-11-25T06:27:59.051Z,94407.75
2018-11-25T06:30:34.468Z,94394.51
2018-11-25T06:33:10.011Z,94399.80
2018-11-25T06:35:45.428Z,94394.13
2018-11-25T06:38:20.894Z,94392.70
2018-11-25T06:40:56.525Z,94390.58
2018-11-25T06:43:32.611Z,94393.59
2018-11-25T06:46:11.091Z,94383.25
2018-11-25T06:48:46.559Z,94381.06
2018-11-25T06:51:22.114Z,94374.63
2018-11-25T06:53:57.564Z,94382.13
2018-11-25T06:56:33.006Z,94369.73
2018-11-25T06:59:08.638Z,94367.87
2018-11-25T07:01:44.442Z,94360.50
2018-11-25T07:04:20.195Z,94358.73
2018-11-25T07:06:55.859Z,94363.38
2018-11-25T07:09:31.285Z,94350.08
2018-11-25T07:12:07.223Z,94359.29
2018-11-25T07:14:42.978Z,94356.44
2018-11-25T07:17:18.460Z,94354.09
2018-11-25T07:19:53.941Z,94346.05
2018-11-25T07:22:29.507Z,94360.20
2018-11-25T07:25:05.636Z,94346.80
2018-11-25T07:27:41.136Z,94346.55
2018-11-25T07:30:18.641Z,94340.30
2018-11-25T07:32:54.552Z,94348.48
2018-11-25T07:35:30.185Z,94338.63
2018-11-25T07:38:06.376Z,94331.73
2018-11-25T07:40:41.911Z,94339.04
2018-11-25T07:43:17.478Z,94320.93
2018-11-25T07:45:53.137Z,94319.70
2018-11-25T07:48:28.698Z,94311.86
2018-11-25T07:51:04.272Z,94289.19
2018-11-25T07:53:40.012Z,94293.48
2018-11-25T07:56:15.461Z,94285.59
2018-11-25T07:58:50.828Z,94277.80
2018-11-25T08:01:26.238Z,94272.55
2018-11-25T08:04:01.838Z,94269.34
2018-11-25T08:06:37.350Z,94266.30
2018-11-25T08:09:12.765Z,94261.19
2018-11-25T08:11:48.714Z,94258.59
2018-11-25T08:14:24.267Z,94255.27
2018-11-25T08:16:59.716Z,94261.72
2018-11-25T08:19:35.122Z,94252.89
2018-11-25T08:22:10.742Z,94250.50
2018-11-25T08:24:46.311Z,94252.03
2018-11-25T08:27:21.828Z,94261.20
2018-11-25T08:29:57.274Z,94264.41
2018-11-25T08:32:32.785Z,94262.14
2018-11-25T08:35:09.630Z,94263.91
2018-11-25T08:37:45.198Z,94279.95
2018-11-25T08:40:24.010Z,94278.68
2018-11-25T08:42:59.488Z,94280.61
2018-11-25T08:45:34.893Z,94278.67
2018-11-25T08:48:10.398Z,94275.15
2018-11-25T08:50:45.862Z,94268.58
2018-11-25T08:53:21.407Z,94257.67
2018-11-25T08:55:56.854Z,94244.80
2018-11-25T08:58:32.685Z,94246.48
2018-11-25T09:01:08.321Z,94238.97
2018-11-25T09:03:44.108Z,94234.48
2018-11-25T09:06:19.543Z,94228.88
2018-11-25T09:08:54.991Z,94229.27
2018-11-25T09:11:30.443Z,94220.97
2018-11-25T09:14:06.258Z,94216.50
2018-11-25T09:16:42.507Z,94210.76
2018-11-25T09:19:18.723Z,94207.85
2018-11-25T09:21:54.136Z,94206.54
2018-11-25T09:24:29.560Z,94207.85
2018-11-25T09:27:05.183Z,94200.34
2018-11-25T09:29:40.615Z,94194.99
2018-11-25T09:32:22.909Z,94201.19
2018-11-25T09:34:52.095Z,94196.34
2018-11-25T09:37:27.628Z,94207.18
2018-11-25T09:40:03.053Z,94206.88
2018-11-25T09:42:38.635Z,94211.25
2018-11-25T09:45:16.308Z,94210.94
2018-11-25T09:47:52.390Z,94213.48
2018-11-25T09:50:28.727Z,94224.72
2018-11-25T09:53:04.198Z,94214.72
2018-11-25T09:55:39.763Z,94213.45
2018-11-25T09:58:15.289Z,94211.69
2018-11-25T10:00:50.957Z,94220.71
2018-11-25T10:03:26.647Z,94220.12
2018-11-25T10:06:01.988Z,94216.17
2018-11-25T10:08:37.546Z,94221.17
2018-11-25T10:11:13.148Z,94225.27
2018-11-25T10:13:48.554Z,94211.53
2018-11-25T10:16:24.051Z,94212.93
2018-11-25T10:19:00.322Z,94204.10
2018-11-25T10:21:35.726Z,94201.81
2018-11-25T10:24:11.547Z,94187.81
2018-11-25T10:26:47.303Z,94171.68
2018-11-25T10:29:22.764Z,94175.13
2018-11-25T10:31:58.329Z,94173.40
2018-11-25T10:34:33.908Z,94166.42
2018-11-25T10:37:09.687Z,94172.35
2018-11-25T10:39:45.398Z,94178.74
2018-11-25T10:42:22.784Z,94177.80
2018-11-25T10:44:58.269Z,94185.66
2018-11-25T10:47:33.706Z,94184.27
2018-11-25T10:50:12.599Z,94178.52
2018-11-25T10:52:48.409Z,94179.05
2018-11-25T10:55:24.219Z,94179.50
2018-11-25T10:57:59.693Z,94179.98
2018-11-25T11:00:41.590Z,94173.56
2018-11-25T11:03:22.296Z,94163.55
2018-11-25T11:06:03.380Z,94152.47
2018-11-25T11:08:38.922Z,94144.04
2018-11-25T11:11:14.514Z,94136.67
2018-11-25T11:13:49.891Z,94125.16
2018-11-25T11:16:25.290Z,94124.41
2018-11-25T11:19:00.907Z,94118.48
2018-11-25T11:21:36.382Z,94116.71
2018-11-25T11:24:11.881Z,94117.89
2018-11-25T11:26:48.680Z,94118.05
2018-11-25T11:29:22.815Z,94107.47
2018-11-25T11:31:58.285Z,94094.66
2018-11-25T11:34:33.666Z,94092.10
2018-11-25T11:37:09.076Z,94084.52
2018-11-25T11:39:44.526Z,94079.77
2018-11-25T11:42:20.046Z,94076.19
2018-11-25T11:44:55.720Z,94074.55
2018-11-25T11:47:31.138Z,94070.57
2018-11-25T11:50:13.990Z,94063.98
2018-11-25T11:52:49.460Z,94063.30
2018-11-25T11:55:25.004Z,94064.14
2018-11-25T11:58:00.472Z,94079.34
2018-11-25T12:00:36.106Z,94086.10
2018-11-25T12:03:11.628Z,94100.75
2018-11-25T12:05:47.318Z,94102.41
2018-11-25T12:08:24.507Z,94110.45
2018-11-25T12:11:00.242Z,94108.13
2018-11-25T12:13:35.786Z,94099.11
2018-11-25T12:16:11.584Z,94092.13
2018-11-25T12:18:46.987Z,94093.53
2018-11-25T12:21:22.469Z,94076.56
2018-11-25T12:23:58.097Z,94078.48
2018-11-25T12:26:36.025Z,94071.93
2018-11-25T12:29:11.493Z,94068.92
2018-11-25T12:31:46.950Z,94068.07
2018-11-25T12:34:22.372Z,94064.72
2018-11-25T12:36:57.940Z,94057.45
2018-11-25T12:39:33.419Z,94054.24
2018-11-25T12:42:09.442Z,94058.06
2018-11-25T12:44:44.847Z,94046.59
2018-11-25T12:47:20.243Z,94045.14
2018-11-25T12:49:55.748Z,94041.75
2018-11-25T12:52:31.070Z,94044.99
2018-11-25T12:55:09.912Z,94043.91
2018-11-25T12:57:45.561Z,94046.83
2018-11-25T13:00:39.253Z,94049.75
2018-11-25T13:03:15.527Z,94065.30
2018-11-25T13:05:51.187Z,94066.48
2018-11-25T13:08:26.706Z,94063.52
2018-11-25T13:11:02.174Z,94059.44
2018-11-25T13:13:37.739Z,94061.19
2018-11-25T13:16:13.227Z,94057.63
2018-11-25T13:18:48.665Z,94048.16
2018-11-25T13:21:24.166Z,94037.00
2018-11-25T13:23:59.594Z,94044.02
2018-11-25T13:26:35.371Z,94033.50
2018-11-25T13:29:10.775Z,94028.02
2018-11-25T13:31:46.917Z,94023.94
2018-11-25T13:34:22.391Z,94022.92
2018-11-25T13:36:57.874Z,94019.05
2018-11-25T13:39:33.310Z,94020.05
2018-11-25T13:42:09.312Z,94021.19
2018-11-25T13:44:45.769Z,94032.46
2018-11-25T13:47:21.247Z,94018.48
2018-11-25T13:49:56.737Z,94025.28
2018-11-25T13:52:32.816Z,94018.78
2018-11-25T13:55:12.436Z,94027.66
2018-11-25T13:57:48.052Z,94038.30
2018-11-25T14:00:47.798Z,94023.66
2018-11-25T14:03:33.770Z,94033.17
2018-11-25T14:06:13.502Z,94036.70
2018-11-25T14:08:54.123Z,94043.63
2018-11-25T14:11:29.650Z,94054.68
2018-11-25T14:14:05.107Z,94060.36
2018-11-25T14:16:40.508Z,94067.95
2018-11-25T14:19:16.056Z,94071.58
2018-11-25T14:21:51.817Z,94075.48
2018-11-25T14:24:28.089Z,94073.42
2018-11-25T14:27:05.340Z,94075.19
2018-11-25T14:29:40.830Z,94080.38
2018-11-25T14:32:16.568Z,94079.94
2018-11-25T14:34:52.063Z,94084.06
2018-11-25T14:37:27.481Z,94086.04
2018-11-25T14:40:03.568Z,94083.85
2018-11-25T14:42:39.572Z,94081.64
2018-11-25T15:00:18.206Z,94085.46
2018-11-25T15:07:27.601Z,94085.38
2018-11-25T15:10:03.846Z,94079.25
2018-11-25T15:12:39.544Z,94091.73
2018-11-25T15:15:17.202Z,94082.63
2018-11-25T15:17:53.384Z,94091.28
2018-11-25T15:20:29.171Z,94080.49
2018-11-25T15:23:07.963Z,94085.14
2018-11-25T15:25:51.123Z,94076.85
2018-11-25T15:28:25.532Z,94071.41
2018-11-25T15:31:01.373Z,94063.89
2018-11-25T15:33:37.493Z,94066.81
2018-11-25T15:36:13.378Z,94060.16
2018-11-25T15:38:48.937Z,94067.59
2018-11-25T15:41:24.614Z,94065.30
2018-11-25T15:44:00.902Z,94052.98
2018-11-25T15:46:36.692Z,94044.83
2018-11-25T15:49:12.644Z,94039.23
2018-11-25T15:51:49.481Z,94029.41
2018-11-25T15:54:26.190Z,94030.59
2018-11-25T15:57:01.858Z,94023.86
2018-11-25T15:59:38.251Z,94025.17
2018-11-25T16:02:13.947Z,94008.13
2018-11-25T16:04:50.047Z,94010.09
2018-11-25T16:07:25.780Z,94004.70
2018-11-25T16:10:01.321Z,94007.52
2018-11-25T16:12:36.943Z,94010.38
2018-11-25T16:15:16.220Z,94012.48
2018-11-25T16:17:51.910Z,94006.52
2018-11-25T16:20:28.796Z,94007.52
2018-11-25T16:23:07.632Z,94006.20
2018-11-25T16:25:50.569Z,94006.93
2018-11-25T16:28:32.283Z,94010.44
2018-11-25T16:31:08.054Z,94008.34
2018-11-25T16:33:43.796Z,94011.41
2018-11-25T16:36:19.290Z,94017.31
2018-11-25T16:38:55.900Z,94017.44
2018-11-25T16:41:31.447Z,94020.19
2018-11-25T16:44:07.300Z,94022.19
2018-11-25T16:46:42.916Z,94018.81
2018-11-25T16:49:18.716Z,94019.29
2018-11-25T16:51:54.668Z,94024.22
2018-11-25T16:54:30.423Z,94020.97
2018-11-25T16:57:06.430Z,94025.22
2018-11-25T16:59:37.106Z,94012.88
2018-11-25T17:02:13.008Z,94010.06
2018-11-25T17:04:48.762Z,94012.72
2018-11-25T17:07:24.354Z,94013.72
2018-11-25T17:10:00.000Z,94015.28
2018-11-25T17:12:35.571Z,94006.52
2018-11-25T17:15:20.582Z,94013.76
2018-11-25T17:17:56.479Z,94018.92
2018-11-25T17:20:32.271Z,94017.12
2018-11-25T17:23:08.419Z,94016.73
2018-11-25T17:25:44.038Z,94011.86
2018-11-25T17:28:20.762Z,94018.84
2018-11-25T17:30:56.571Z,94016.56
2018-11-25T17:33:32.119Z,94010.34
2018-11-25T17:36:07.816Z,94013.05
2018-11-25T17:38:43.436Z,94017.67
2018-11-25T17:41:19.110Z,94009.51
2018-11-25T17:43:55.234Z,94012.23
2018-11-25T17:46:31.288Z,94014.37
2018-11-25T17:49:07.913Z,94021.12
2018-11-25T17:51:43.916Z,94026.12
2018-11-25T17:54:19.587Z,94015.38
2018-11-25T17:56:55.719Z,94006.81
2018-11-25T17:59:31.507Z,93999.76
2018-11-25T18:02:07.863Z,94001.52
2018-11-25T18:04:43.398Z,93996.58
2018-11-25T18:07:19.462Z,93995.37
2018-11-25T18:09:55.601Z,93995.56
2018-11-25T18:12:31.143Z,93994.53
2018-11-25T18:15:13.036Z,93991.38
2018-11-25T18:18:00.112Z,93990.46
2018-11-25T18:20:42.024Z,93988.72
2018-11-25T18:23:17.831Z,94001.13
2018-11-25T18:25:54.047Z,93983.70
2018-11-25T18:28:29.597Z,93989.34
2018-11-25T18:31:05.367Z,93987.84
2018-11-25T18:33:41.948Z,93987.85
2018-11-25T18:36:17.516Z,93990.88
2018-11-25T18:38:53.391Z,93999.45
2018-11-25T18:41:29.034Z,94000.30
2018-11-25T18:44:04.730Z,93991.92
2018-11-25T18:46:46.499Z,93989.81
2018-11-25T18:49:16.217Z,93981.31
2018-11-25T18:51:51.915Z,93980.02
2018-11-25T18:54:27.543Z,93980.37
2018-11-25T18:57:03.192Z,93991.16
2018-11-25T18:59:38.937Z,93982.52
2018-11-25T19:02:26.271Z,93991.62
2018-11-25T19:05:02.865Z,93991.40
2018-11-25T19:07:39.128Z,93988.36
2018-11-25T19:10:18.198Z,93988.02
2018-11-25T19:12:54.011Z,93991.45
2018-11-25T19:15:29.638Z,93988.55
2018-11-25T19:18:05.222Z,93987.44
2018-11-25T19:20:40.907Z,93986.67
2018-11-25T19:23:16.667Z,93985.90
2018-11-25T19:25:52.386Z,93988.59
2018-11-25T19:28:28.088Z,93977.35
2018-11-25T19:31:03.733Z,93974.48
2018-11-25T19:33:39.390Z,93977.87
2018-11-25T19:36:15.012Z,93977.23
2018-11-25T19:38:50.727Z,93974.19
2018-11-25T19:41:26.688Z,93985.78
2018-11-25T19:44:02.510Z,93983.39
2018-11-25T19:46:38.121Z,93979.42
2018-11-25T19:49:14.420Z,93987.71
2018-11-25T19:51:50.965Z,93988.65
2018-11-25T19:54:26.693Z,93982.75
2018-11-25T19:57:02.567Z,93978.84
2018-11-25T19:59:38.138Z,93981.24
2018-11-25T20:02:13.912Z,93974.20
2018-11-25T20:04:49.575Z,93971.67
2018-11-25T20:07:25.359Z,93980.99
2018-11-25T20:10:01.025Z,93974.33
2018-11-25T20:12:43.252Z,93982.48
2018-11-25T20:15:19.762Z,93990.35
2018-11-25T20:17:55.361Z,93988.27
2018-11-25T20:20:31.010Z,93973.86
2018-11-25T20:23:07.651Z,93981.85
2018-11-25T20:25:43.414Z,93984.08
2018-11-25T20:28:19.115Z,93991.42
2018-11-25T20:30:54.705Z,93984.81
2018-11-25T20:33:35.542Z,93975.34
2018-11-25T20:36:12.012Z,93968.12
2018-11-25T20:38:52.693Z,93969.47
2018-11-25T20:41:28.307Z,93961.59
2018-11-25T20:44:03.812Z,93956.52
2018-11-25T20:46:45.477Z,93957.20
2018-11-25T20:49:21.087Z,93958.50
2018-11-25T20:53:01.058Z,93967.18
2018-11-25T20:55:37.107Z,93958.39
2018-11-25T20:58:12.740Z,93954.55
2018-11-25T21:00:48.310Z,93952.50
2018-11-25T21:03:24.056Z,93952.02
2018-11-25T21:06:01.194Z,93952.80
2018-11-25T21:08:36.746Z,93946.66
2018-11-25T21:11:13.111Z,93943.39
2018-11-25T21:13:48.855Z,93945.32
2018-11-25T21:16:24.621Z,93953.02
2018-11-25T21:19:00.300Z,93955.89
2018-11-25T21:21:36.011Z,93955.59
2018-11-25T21:24:12.845Z,93955.24
2018-11-25T21:26:48.514Z,93965.05
2018-11-25T21:29:24.090Z,93950.38
2018-11-25T21:31:59.764Z,93942.72
2018-11-25T21:34:35.467Z,93940.94
2018-11-25T21:37:11.041Z,93952.66
2018-11-25T21:39:46.683Z,93949.50
2018-11-25T21:42:22.223Z,93959.61
2018-11-25T21:44:59.373Z,93953.18
2018-11-25T21:47:35.209Z,93961.34
2018-11-25T21:50:16.265Z,93964.83
2018-11-25T21:52:51.848Z,93966.41
2018-11-25T21:55:27.612Z,93963.55
2018-11-25T21:58:03.369Z,93970.61
2018-11-25T22:00:39.106Z,93968.83
2018-11-25T22:03:14.787Z,93976.98
2018-11-25T22:05:50.394Z,93981.28
2018-11-25T22:08:26.189Z,93978.13
2018-11-25T22:11:02.656Z,93983.87
2018-11-25T22:13:38.293Z,93986.27
2018-11-25T22:16:13.855Z,93985.48
2018-11-25T22:18:49.390Z,93989.83
2018-11-25T22:21:24.981Z,93991.28
2018-11-25T22:24:00.687Z,93987.96
2018-11-25T22:26:36.283Z,93988.78
2018-11-25T22:29:12.235Z,93988.30
2018-11-25T22:31:47.947Z,93991.80
2018-11-25T22:34:23.954Z,93987.77
2018-11-25T22:36:59.541Z,93988.76
2018-11-25T22:39:35.720Z,93986.89
2018-11-25T22:42:11.426Z,93981.48
2018-11-25T22:44:47.508Z,93995.14
2018-11-25T22:47:23.227Z,93990.63
2018-11-25T22:49:58.922Z,93986.44
2018-11-25T22:52:34.542Z,93986.78
2018-11-25T22:55:13.575Z,93991.45
2018-11-25T22:57:49.138Z,94000.91
2018-11-25T23:00:33.223Z,94002.87
2018-11-25T23:03:09.308Z,93992.40
2018-11-25T23:06:01.520Z,93989.34
2018-11-25T23:08:37.171Z,93997.22
2018-11-25T23:11:12.866Z,93991.28
2018-11-25T23:13:48.398Z,93991.03
2018-11-25T23:16:26.275Z,93987.02
2018-11-25T23:19:01.774Z,93985.86
2018-11-25T23:21:37.424Z,93989.83
2018-11-25T23:24:13.300Z,93992.22
2018-11-25T23:26:48.895Z,93990.41
2018-11-25T23:29:24.579Z,93993.55
2018-11-25T23:32:00.421Z,93997.88
2018-11-25T23:34:36.173Z,94011.17
2018-11-25T23:37:12.205Z,94007.67
2018-11-25T23:39:47.812Z,94003.06
2018-11-25T23:42:23.695Z,94008.30
2018-11-25T23:44:59.430Z,94001.52
2018-11-25T23:47:34.964Z,94010.81
2018-11-25T23:50:12.363Z,94011.80
2018-11-25T23:52:49.287Z,94010.64
2018-11-25T23:55:24.921Z,94006.33
2018-11-25T23:58:00.619Z,94011.11
